Terminal Aerodrome Forecast
Issued by NWS Pueblo, CO

Home | Current Version | Previous Version | Text Only | Print | Product List | Glossary On
Versions: 1 2 3 4 5 6 7 8 9 10 11 12 13 14 15 16 17 18 19 20 21 22 23 24 25 26 27 28 29 30 31 32 33 34 35 36 37 38 39 40 41 42 43 44 45 46 47 48 49 50
000
FTUS45 KPUB 080146 AAA
TAFCOS
TAF AMD
KCOS 080146Z 0802/0824 17012KT 2SM BR VCSH FEW025 OVC040
     FM080400 16011KT P6SM -SHRA SCT030 OVC040
     FM080800 12007KT 4SM -DZ BR SCT005 OVC020
     FM081100 09006KT 2SM -DZ BR SCT005 OVC015
     FM081800 05010KT P6SM VCTS SCT030CB OVC060=

USA.gov is the U.S. government's official web portal to all federal, state and local government web resources and services.